sensor_id;sensor_type;location;lat;lon;timestamp;P1;durP1;ratioP1;P2;durP2;ratioP2
27367;SDS011;14839;48.106;11.618;2023-09-30T04:01:08;20.43;;;6.73;;
27367;SDS011;14839;48.106;11.618;2023-09-30T04:03:38;14.57;;;6.33;;
27367;SDS011;14839;48.106;11.618;2023-09-30T04:06:04;25.37;;;6.53;;
27367;SDS011;14839;48.106;11.618;2023-09-30T04:08:33;19.37;;;6.47;;
27367;SDS011;14839;48.106;11.618;2023-09-30T04:10:59;20.60;;;6.33;;
27367;SDS011;14839;48.106;11.618;2023-09-30T04:13:25;18.20;;;6.90;;
27367;SDS011;14839;48.106;11.618;2023-09-30T04:15:52;19.90;;;6.63;;
27367;SDS011;14839;48.106;11.618;2023-09-30T04:18:18;18.37;;;6.70;;
27367;SDS011;14839;48.106;11.618;2023-09-30T04:20:45;17.43;;;6.77;;
27367;SDS011;14839;48.106;11.618;2023-09-30T04:23:11;16.90;;;6.00;;
27367;SDS011;14839;48.106;11.618;2023-09-30T04:25:38;17.77;;;7.20;;
27367;SDS011;14839;48.106;11.618;2023-09-30T04:28:03;14.27;;;6.23;;
27367;SDS011;14839;48.106;11.618;2023-09-30T04:30:29;18.97;;;6.67;;
27367;SDS011;14839;48.106;11.618;2023-09-30T04:32:57;20.63;;;7.10;;
27367;SDS011;14839;48.106;11.618;2023-09-30T04:35:24;15.60;;;6.67;;
27367;SDS011;14839;48.106;11.618;2023-09-30T04:37:50;21.43;;;7.43;;
27367;SDS011;14839;48.106;11.618;2023-09-30T04:40:16;20.83;;;6.73;;
27367;SDS011;14839;48.106;11.618;2023-09-30T04:42:44;24.33;;;7.67;;
27367;SDS011;14839;48.106;11.618;2023-09-30T04:45:11;18.20;;;6.60;;
27367;SDS011;14839;48.106;11.618;2023-09-30T04:47:38;16.63;;;6.70;;
27367;SDS011;14839;48.106;11.618;2023-09-30T04:50:07;21.57;;;6.53;;
27367;SDS011;14839;48.106;11.618;2023-09-30T04:52:34;19.83;;;6.63;;
27367;SDS011;14839;48.106;11.618;2023-09-30T04:55:00;18.53;;;6.23;;
27367;SDS011;14839;48.106;11.618;2023-09-30T04:57:26;20.13;;;6.83;;
27367;SDS011;14839;48.106;11.618;2023-09-30T04:59:52;15.30;;;5.67;;
27367;SDS011;14839;48.106;11.618;2023-09-30T05:02:17;19.27;;;6.93;;
27367;SDS011;14839;48.106;11.618;2023-09-30T05:04:43;17.17;;;6.83;;
27367;SDS011;14839;48.106;11.618;2023-09-30T05:07:09;18.03;;;5.67;;
27367;SDS011;14839;48.106;11.618;2023-09-30T05:09:35;15.53;;;5.87;;
27367;SDS011;14839;48.106;11.618;2023-09-30T05:12:01;17.67;;;5.47;;
27367;SDS011;14839;48.106;11.618;2023-09-30T05:14:27;13.40;;;5.67;;
27367;SDS011;14839;48.106;11.618;2023-09-30T05:16:54;18.17;;;5.80;;
27367;SDS011;14839;48.106;11.618;2023-09-30T05:19:21;17.67;;;5.43;;
27367;SDS011;14839;48.106;11.618;2023-09-30T05:21:47;13.93;;;5.50;;
27367;SDS011;14839;48.106;11.618;2023-09-30T05:24:14;18.13;;;5.63;;
27367;SDS011;14839;48.106;11.618;2023-09-30T05:26:39;17.43;;;6.60;;
27367;SDS011;14839;48.106;11.618;2023-09-30T05:29:05;14.80;;;5.87;;
27367;SDS011;14839;48.106;11.618;2023-09-30T05:31:32;16.03;;;5.27;;
27367;SDS011;14839;48.106;11.618;2023-09-30T05:33:58;23.07;;;7.23;;
27367;SDS011;14839;48.106;11.618;2023-09-30T05:36:23;18.90;;;6.73;;
27367;SDS011;14839;48.106;11.618;2023-09-30T05:38:49;13.47;;;5.60;;
27367;SDS011;14839;48.106;11.618;2023-09-30T05:41:15;12.83;;;5.17;;
27367;SDS011;14839;48.106;11.618;2023-09-30T05:43:41;16.57;;;6.53;;
27367;SDS011;14839;48.106;11.618;2023-09-30T05:46:08;16.90;;;6.40;;
27367;SDS011;14839;48.106;11.618;2023-09-30T05:48:34;19.97;;;6.07;;
27367;SDS011;14839;48.106;11.618;2023-09-30T05:50:59;15.73;;;6.20;;
27367;SDS011;14839;48.106;11.618;2023-09-30T05:53:25;18.33;;;6.53;;
27367;SDS011;14839;48.106;11.618;2023-09-30T05:55:52;11.90;;;5.27;;
27367;SDS011;14839;48.106;11.618;2023-09-30T05:58:19;14.30;;;6.30;;
27367;SDS011;14839;48.106;11.618;2023-09-30T06:00:44;15.87;;;5.33;;
27367;SDS011;14839;48.106;11.618;2023-09-30T06:03:10;13.30;;;6.10;;
27367;SDS011;14839;48.106;11.618;2023-09-30T06:05:39;14.20;;;5.70;;
27367;SDS011;14839;48.106;11.618;2023-09-30T06:08:06;21.17;;;6.30;;
27367;SDS011;14839;48.106;11.618;2023-09-30T06:10:35;15.90;;;5.90;;
27367;SDS011;14839;48.106;11.618;2023-09-30T06:13:03;15.83;;;5.70;;
27367;SDS011;14839;48.106;11.618;2023-09-30T06:15:29;16.33;;;5.47;;
27367;SDS011;14839;48.106;11.618;2023-09-30T06:17:56;15.80;;;5.83;;
27367;SDS011;14839;48.106;11.618;2023-09-30T06:20:22;15.53;;;5.23;;
27367;SDS011;14839;48.106;11.618;2023-09-30T06:22:52;17.33;;;5.47;;
27367;SDS011;14839;48.106;11.618;2023-09-30T06:25:20;17.00;;;5.53;;
27367;SDS011;14839;48.106;11.618;2023-09-30T06:27:48;17.43;;;5.30;;
27367;SDS011;14839;48.106;11.618;2023-09-30T06:30:15;16.33;;;6.50;;
27367;SDS011;14839;48.106;11.618;2023-09-30T06:32:41;12.37;;;5.97;;
27367;SDS011;14839;48.106;11.618;2023-09-30T06:35:08;15.03;;;5.43;;
27367;SDS011;14839;48.106;11.618;2023-09-30T06:37:44;16.30;;;5.80;;
27367;SDS011;14839;48.106;11.618;2023-09-30T06:40:10;17.90;;;5.37;;
27367;SDS011;14839;48.106;11.618;2023-09-30T06:42:39;15.37;;;5.23;;
27367;SDS011;14839;48.106;11.618;2023-09-30T06:45:05;17.73;;;5.40;;
27367;SDS011;14839;48.106;11.618;2023-09-30T06:47:32;12.90;;;4.60;;
27367;SDS011;14839;48.106;11.618;2023-09-30T06:50:02;10.23;;;4.20;;
27367;SDS011;14839;48.106;11.618;2023-09-30T06:52:33;11.87;;;4.77;;
27367;SDS011;14839;48.106;11.618;2023-09-30T06:55:00;11.77;;;4.77;;
27367;SDS011;14839;48.106;11.618;2023-09-30T06:57:26;9.87;;;4.23;;
27367;SDS011;14839;48.106;11.618;2023-09-30T06:59:52;12.30;;;4.40;;
27367;SDS011;14839;48.106;11.618;2023-09-30T07:02:17;10.60;;;3.77;;
27367;SDS011;14839;48.106;11.618;2023-09-30T07:04:43;8.50;;;3.80;;
27367;SDS011;14839;48.106;11.618;2023-09-30T07:07:09;8.20;;;3.80;;
27367;SDS011;14839;48.106;11.618;2023-09-30T07:09:34;13.47;;;4.03;;
27367;SDS011;14839;48.106;11.618;2023-09-30T07:12:01;6.97;;;3.13;;
27367;SDS011;14839;48.106;11.618;2023-09-30T07:14:27;8.57;;;2.90;;
27367;SDS011;14839;48.106;11.618;2023-09-30T07:16:52;7.53;;;2.87;;
27367;SDS011;14839;48.106;11.618;2023-09-30T07:19:18;8.20;;;3.50;;
27367;SDS011;14839;48.106;11.618;2023-09-30T07:21:43;9.40;;;2.80;;
27367;SDS011;14839;48.106;11.618;2023-09-30T07:24:11;11.10;;;3.27;;
27367;SDS011;14839;48.106;11.618;2023-09-30T07:26:37;6.40;;;2.97;;
27367;SDS011;14839;48.106;11.618;2023-09-30T07:29:02;9.33;;;3.77;;
27367;SDS011;14839;48.106;11.618;2023-09-30T07:31:32;7.53;;;3.37;;
27367;SDS011;14839;48.106;11.618;2023-09-30T07:33:59;8.47;;;3.23;;
27367;SDS011;14839;48.106;11.618;2023-09-30T07:36:25;9.57;;;3.37;;
27367;SDS011;14839;48.106;11.618;2023-09-30T07:38:50;8.37;;;3.10;;
27367;SDS011;14839;48.106;11.618;2023-09-30T07:41:16;13.77;;;4.37;;
27367;SDS011;14839;48.106;11.618;2023-09-30T07:43:42;7.67;;;3.53;;
27367;SDS011;14839;48.106;11.618;2023-09-30T07:46:08;8.97;;;3.77;;
27367;SDS011;14839;48.106;11.618;2023-09-30T07:48:34;9.67;;;3.33;;
27367;SDS011;14839;48.106;11.618;2023-09-30T07:51:00;8.30;;;3.60;;
27367;SDS011;14839;48.106;11.618;2023-09-30T07:53:26;8.23;;;3.57;;
27367;SDS011;14839;48.106;11.618;2023-09-30T07:55:52;11.87;;;3.90;;
27367;SDS011;14839;48.106;11.618;2023-09-30T07:58:19;10.03;;;3.20;;
27367;SDS011;14839;48.106;11.618;2023-09-30T08:00:45;12.53;;;3.53;;
27367;SDS011;14839;48.106;11.618;2023-09-30T08:03:11;8.90;;;3.57;;
27367;SDS011;14839;48.106;11.618;2023-09-30T08:05:37;11.47;;;3.83;;
27367;SDS011;14839;48.106;11.618;2023-09-30T08:08:03;8.27;;;3.77;;
27367;SDS011;14839;48.106;11.618;2023-09-30T08:10:29;8.03;;;3.77;;
27367;SDS011;14839;48.106;11.618;2023-09-30T08:12:57;10.93;;;3.33;;
27367;SDS011;14839;48.106;11.618;2023-09-30T08:15:24;5.87;;;2.73;;
27367;SDS011;14839;48.106;11.618;2023-09-30T08:17:50;9.47;;;3.03;;
27367;SDS011;14839;48.106;11.618;2023-09-30T08:20:15;12.47;;;3.90;;
27367;SDS011;14839;48.106;11.618;2023-09-30T08:22:41;11.40;;;3.83;;
27367;SDS011;14839;48.106;11.618;2023-09-30T08:25:07;9.30;;;3.78;;
27367;SDS011;14839;48.106;11.618;2023-09-30T08:27:33;9.80;;;3.03;;
27367;SDS011;14839;48.106;11.618;2023-09-30T08:29:59;7.90;;;3.17;;
27367;SDS011;14839;48.106;11.618;2023-09-30T08:32:26;8.47;;;4.00;;
27367;SDS011;14839;48.106;11.618;2023-09-30T08:34:51;8.50;;;3.33;;
27367;SDS011;14839;48.106;11.618;2023-09-30T08:37:17;7.90;;;3.97;;
27367;SDS011;14839;48.106;11.618;2023-09-30T08:39:42;10.60;;;3.43;;
27367;SDS011;14839;48.106;11.618;2023-09-30T08:42:11;13.07;;;4.57;;
27367;SDS011;14839;48.106;11.618;2023-09-30T08:44:37;9.57;;;3.53;;
27367;SDS011;14839;48.106;11.618;2023-09-30T08:47:05;7.37;;;3.70;;
27367;SDS011;14839;48.106;11.618;2023-09-30T08:49:38;8.83;;;3.53;;
27367;SDS011;14839;48.106;11.618;2023-09-30T08:52:06;7.87;;;3.20;;
27367;SDS011;14839;48.106;11.618;2023-09-30T08:54:34;12.13;;;3.50;;
27367;SDS011;14839;48.106;11.618;2023-09-30T08:57:00;9.50;;;3.53;;
27367;SDS011;14839;48.106;11.618;2023-09-30T08:59:29;10.63;;;4.03;;
27367;SDS011;14839;48.106;11.618;2023-09-30T09:01:56;11.00;;;3.70;;
27367;SDS011;14839;48.106;11.618;2023-09-30T09:04:23;11.43;;;4.20;;
27367;SDS011;14839;48.106;11.618;2023-09-30T09:06:49;10.43;;;3.73;;
27367;SDS011;14839;48.106;11.618;2023-09-30T09:09:15;7.90;;;4.27;;
27367;SDS011;14839;48.106;11.618;2023-09-30T09:11:42;9.33;;;4.10;;
27367;SDS011;14839;48.106;11.618;2023-09-30T09:14:08;11.77;;;3.80;;
27367;SDS011;14839;48.106;11.618;2023-09-30T09:16:34;9.90;;;4.22;;
27367;SDS011;14839;48.106;11.618;2023-09-30T09:19:12;7.95;;;3.67;;
27367;SDS011;14839;48.106;11.618;2023-09-30T09:21:39;12.55;;;4.85;;
27367;SDS011;14839;48.106;11.618;2023-09-30T09:24:29;14.20;;;4.47;;
27367;SDS011;14839;48.106;11.618;2023-09-30T09:27:06;10.20;;;4.30;;
27367;SDS011;14839;48.106;11.618;2023-09-30T09:29:37;8.55;;;4.20;;
27367;SDS011;14839;48.106;11.618;2023-09-30T09:32:10;11.90;;;4.88;;
27367;SDS011;14839;48.106;11.618;2023-09-30T09:34:43;9.93;;;3.70;;
27367;SDS011;14839;48.106;11.618;2023-09-30T09:37:13;8.05;;;4.00;;
27367;SDS011;14839;48.106;11.618;2023-09-30T09:39:53;9.15;;;4.22;;
27367;SDS011;14839;48.106;11.618;2023-09-30T09:42:25;9.70;;;4.40;;
27367;SDS011;14839;48.106;11.618;2023-09-30T09:45:02;10.70;;;4.05;;
27367;SDS011;14839;48.106;11.618;2023-09-30T09:47:31;11.03;;;4.13;;
27367;SDS011;14839;48.106;11.618;2023-09-30T09:49:58;9.83;;;3.73;;
27367;SDS011;14839;48.106;11.618;2023-09-30T09:52:25;17.20;;;4.23;;
27367;SDS011;14839;48.106;11.618;2023-09-30T09:54:51;8.47;;;4.43;;
27367;SDS011;14839;48.106;11.618;2023-09-30T09:57:17;11.40;;;4.80;;
27367;SDS011;14839;48.106;11.618;2023-09-30T09:59:46;9.18;;;4.05;;
27367;SDS011;14839;48.106;11.618;2023-09-30T10:02:12;15.47;;;4.63;;
27367;SDS011;14839;48.106;11.618;2023-09-30T10:04:42;12.48;;;4.75;;
27367;SDS011;14839;48.106;11.618;2023-09-30T10:07:11;12.13;;;4.85;;
27367;SDS011;14839;48.106;11.618;2023-09-30T10:09:50;11.32;;;4.55;;
27367;SDS011;14839;48.106;11.618;2023-09-30T10:12:18;10.20;;;4.43;;
27367;SDS011;14839;48.106;11.618;2023-09-30T10:14:44;8.57;;;4.18;;
27367;SDS011;14839;48.106;11.618;2023-09-30T10:17:10;12.18;;;4.00;;
27367;SDS011;14839;48.106;11.618;2023-09-30T10:19:36;12.38;;;3.97;;
27367;SDS011;14839;48.106;11.618;2023-09-30T10:25:33;9.85;;;3.80;;
27367;SDS011;14839;48.106;11.618;2023-09-30T10:28:00;11.82;;;3.85;;
27367;SDS011;14839;48.106;11.618;2023-09-30T10:31:07;6.65;;;3.50;;
27367;SDS011;14839;48.106;11.618;2023-09-30T10:36:32;9.75;;;3.88;;
27367;SDS011;14839;48.106;11.618;2023-09-30T10:39:06;9.32;;;3.90;;
27367;SDS011;14839;48.106;11.618;2023-09-30T10:46:50;9.57;;;3.85;;
27367;SDS011;14839;48.106;11.618;2023-09-30T10:51:49;10.73;;;4.00;;
27367;SDS011;14839;48.106;11.618;2023-09-30T10:54:21;7.10;;;3.33;;
27367;SDS011;14839;48.106;11.618;2023-09-30T10:56:48;7.25;;;3.78;;
27367;SDS011;14839;48.106;11.618;2023-09-30T10:59:23;11.23;;;4.25;;
27367;SDS011;14839;48.106;11.618;2023-09-30T11:01:51;8.00;;;3.53;;
27367;SDS011;14839;48.106;11.618;2023-09-30T11:04:18;7.05;;;3.40;;
27367;SDS011;14839;48.106;11.618;2023-09-30T11:06:44;12.13;;;3.78;;
27367;SDS011;14839;48.106;11.618;2023-09-30T11:09:14;10.50;;;3.85;;
27367;SDS011;14839;48.106;11.618;2023-09-30T11:14:18;9.95;;;3.88;;
27367;SDS011;14839;48.106;11.618;2023-09-30T11:16:55;8.35;;;3.85;;
27367;SDS011;14839;48.106;11.618;2023-09-30T11:19:27;12.00;;;4.20;;
27367;SDS011;14839;48.106;11.618;2023-09-30T11:21:59;11.50;;;4.47;;
27367;SDS011;14839;48.106;11.618;2023-09-30T11:24:25;12.80;;;4.45;;
27367;SDS011;14839;48.106;11.618;2023-09-30T11:26:54;13.05;;;3.97;;
27367;SDS011;14839;48.106;11.618;2023-09-30T11:29:21;10.60;;;4.05;;
27367;SDS011;14839;48.106;11.618;2023-09-30T11:31:47;9.20;;;3.95;;
27367;SDS011;14839;48.106;11.618;2023-09-30T11:34:16;10.65;;;4.32;;
27367;SDS011;14839;48.106;11.618;2023-09-30T11:36:49;8.85;;;4.05;;
27367;SDS011;14839;48.106;11.618;2023-09-30T11:39:26;10.70;;;4.00;;
27367;SDS011;14839;48.106;11.618;2023-09-30T11:41:53;10.10;;;4.65;;
27367;SDS011;14839;48.106;11.618;2023-09-30T11:44:22;10.25;;;4.75;;
27367;SDS011;14839;48.106;11.618;2023-09-30T11:49:27;14.18;;;5.07;;
27367;SDS011;14839;48.106;11.618;2023-09-30T11:52:12;14.40;;;5.20;;
27367;SDS011;14839;48.106;11.618;2023-09-30T11:54:41;13.52;;;5.03;;
27367;SDS011;14839;48.106;11.618;2023-09-30T11:57:09;8.73;;;4.07;;
27367;SDS011;14839;48.106;11.618;2023-09-30T11:59:36;13.00;;;4.97;;
27367;SDS011;14839;48.106;11.618;2023-09-30T12:02:03;14.27;;;5.43;;
27367;SDS011;14839;48.106;11.618;2023-09-30T12:04:33;13.50;;;6.07;;
27367;SDS011;14839;48.106;11.618;2023-09-30T12:06:59;21.23;;;6.47;;
27367;SDS011;14839;48.106;11.618;2023-09-30T12:09:25;12.60;;;5.38;;
27367;SDS011;14839;48.106;11.618;2023-09-30T12:11:51;17.02;;;5.78;;
27367;SDS011;14839;48.106;11.618;2023-09-30T12:14:19;15.13;;;5.75;;
27367;SDS011;14839;48.106;11.618;2023-09-30T12:16:45;11.50;;;5.25;;
27367;SDS011;14839;48.106;11.618;2023-09-30T12:19:13;14.07;;;5.68;;
27367;SDS011;14839;48.106;11.618;2023-09-30T12:21:40;11.00;;;4.25;;
27367;SDS011;14839;48.106;11.618;2023-09-30T12:24:07;11.13;;;4.40;;
27367;SDS011;14839;48.106;11.618;2023-09-30T12:26:34;12.48;;;4.38;;
27367;SDS011;14839;48.106;11.618;2023-09-30T12:29:01;9.20;;;4.07;;
27367;SDS011;14839;48.106;11.618;2023-09-30T12:31:27;8.40;;;3.63;;
27367;SDS011;14839;48.106;11.618;2023-09-30T12:33:52;10.10;;;4.38;;
27367;SDS011;14839;48.106;11.618;2023-09-30T12:36:19;9.23;;;3.65;;
27367;SDS011;14839;48.106;11.618;2023-09-30T12:38:45;13.30;;;4.53;;
27367;SDS011;14839;48.106;11.618;2023-09-30T12:41:10;9.00;;;3.97;;
27367;SDS011;14839;48.106;11.618;2023-09-30T12:43:37;9.60;;;4.22;;
27367;SDS011;14839;48.106;11.618;2023-09-30T12:46:02;10.45;;;4.22;;
27367;SDS011;14839;48.106;11.618;2023-09-30T12:48:29;12.60;;;4.30;;
27367;SDS011;14839;48.106;11.618;2023-09-30T12:50:55;9.85;;;3.90;;
27367;SDS011;14839;48.106;11.618;2023-09-30T12:53:21;9.35;;;4.28;;
27367;SDS011;14839;48.106;11.618;2023-09-30T12:55:46;9.88;;;3.80;;
27367;SDS011;14839;48.106;11.618;2023-09-30T12:58:12;10.38;;;4.32;;
27367;SDS011;14839;48.106;11.618;2023-09-30T13:00:38;10.68;;;4.43;;
27367;SDS011;14839;48.106;11.618;2023-09-30T13:03:03;9.02;;;4.20;;
27367;SDS011;14839;48.106;11.618;2023-09-30T13:05:29;8.70;;;4.15;;
27367;SDS011;14839;48.106;11.618;2023-09-30T13:07:55;9.15;;;3.78;;
27367;SDS011;14839;48.106;11.618;2023-09-30T13:10:22;11.32;;;4.55;;
27367;SDS011;14839;48.106;11.618;2023-09-30T13:12:48;11.35;;;5.18;;
27367;SDS011;14839;48.106;11.618;2023-09-30T13:15:15;15.63;;;4.80;;
27367;SDS011;14839;48.106;11.618;2023-09-30T13:17:42;10.23;;;4.78;;
27367;SDS011;14839;48.106;11.618;2023-09-30T13:20:08;11.25;;;4.97;;
27367;SDS011;14839;48.106;11.618;2023-09-30T13:22:35;14.05;;;5.45;;
27367;SDS011;14839;48.106;11.618;2023-09-30T13:25:04;12.48;;;4.22;;
27367;SDS011;14839;48.106;11.618;2023-09-30T13:27:30;13.57;;;5.10;;
27367;SDS011;14839;48.106;11.618;2023-09-30T13:29:57;10.90;;;4.78;;
27367;SDS011;14839;48.106;11.618;2023-09-30T13:32:23;15.13;;;5.10;;
27367;SDS011;14839;48.106;11.618;2023-09-30T13:34:52;13.38;;;5.70;;
27367;SDS011;14839;48.106;11.618;2023-09-30T13:37:19;14.43;;;5.35;;
27367;SDS011;14839;48.106;11.618;2023-09-30T13:39:45;13.38;;;4.95;;
27367;SDS011;14839;48.106;11.618;2023-09-30T13:42:10;9.55;;;3.72;;
27367;SDS011;14839;48.106;11.618;2023-09-30T13:44:36;12.02;;;4.82;;
27367;SDS011;14839;48.106;11.618;2023-09-30T13:47:01;11.90;;;4.57;;
27367;SDS011;14839;48.106;11.618;2023-09-30T13:49:28;13.90;;;4.93;;
27367;SDS011;14839;48.106;11.618;2023-09-30T13:51:55;11.90;;;4.53;;
27367;SDS011;14839;48.106;11.618;2023-09-30T13:54:21;9.40;;;4.10;;
27367;SDS011;14839;48.106;11.618;2023-09-30T13:56:46;9.35;;;3.72;;
27367;SDS011;14839;48.106;11.618;2023-09-30T13:59:12;9.70;;;3.65;;
27367;SDS011;14839;48.106;11.618;2023-09-30T14:01:38;8.73;;;4.05;;
27367;SDS011;14839;48.106;11.618;2023-09-30T14:04:06;9.23;;;4.45;;
27367;SDS011;14839;48.106;11.618;2023-09-30T14:06:32;10.02;;;4.10;;
27367;SDS011;14839;48.106;11.618;2023-09-30T14:08:58;14.85;;;4.22;;
27367;SDS011;14839;48.106;11.618;2023-09-30T14:11:24;11.75;;;4.47;;
27367;SDS011;14839;48.106;11.618;2023-09-30T14:13:49;10.52;;;4.75;;
27367;SDS011;14839;48.106;11.618;2023-09-30T14:16:15;8.20;;;4.22;;
27367;SDS011;14839;48.106;11.618;2023-09-30T14:18:41;12.40;;;4.30;;
27367;SDS011;14839;48.106;11.618;2023-09-30T14:21:07;11.20;;;4.95;;
27367;SDS011;14839;48.106;11.618;2023-09-30T14:23:33;10.63;;;4.43;;
27367;SDS011;14839;48.106;11.618;2023-09-30T14:25:59;11.03;;;4.80;;
27367;SDS011;14839;48.106;11.618;2023-09-30T14:28:25;11.87;;;4.97;;
27367;SDS011;14839;48.106;11.618;2023-09-30T14:30:51;10.77;;;4.70;;
27367;SDS011;14839;48.106;11.618;2023-09-30T14:33:17;11.07;;;4.68;;
27367;SDS011;14839;48.106;11.618;2023-09-30T14:35:44;13.05;;;4.47;;
27367;SDS011;14839;48.106;11.618;2023-09-30T14:38:10;10.25;;;3.90;;
27367;SDS011;14839;48.106;11.618;2023-09-30T14:40:39;12.55;;;4.38;;
27367;SDS011;14839;48.106;11.618;2023-09-30T14:43:05;21.50;;;5.80;;
27367;SDS011;14839;48.106;11.618;2023-09-30T14:45:31;12.83;;;4.90;;
27367;SDS011;14839;48.106;11.618;2023-09-30T14:47:57;11.60;;;4.38;;
27367;SDS011;14839;48.106;11.618;2023-09-30T14:50:22;14.77;;;5.57;;
27367;SDS011;14839;48.106;11.618;2023-09-30T14:52:48;11.23;;;4.87;;
27367;SDS011;14839;48.106;11.618;2023-09-30T14:55:14;19.27;;;5.60;;
27367;SDS011;14839;48.106;11.618;2023-09-30T14:57:41;11.73;;;5.10;;
27367;SDS011;14839;48.106;11.618;2023-09-30T15:00:07;33.20;;;8.80;;
27367;SDS011;14839;48.106;11.618;2023-09-30T15:02:33;21.97;;;5.03;;
27367;SDS011;14839;48.106;11.618;2023-09-30T15:04:59;11.03;;;4.10;;
27367;SDS011;14839;48.106;11.618;2023-09-30T15:07:24;10.50;;;4.30;;
27367;SDS011;14839;48.106;11.618;2023-09-30T15:09:50;14.23;;;4.72;;
27367;SDS011;14839;48.106;11.618;2023-09-30T15:12:17;12.53;;;4.73;;
27367;SDS011;14839;48.106;11.618;2023-09-30T15:14:42;11.03;;;3.83;;
27367;SDS011;14839;48.106;11.618;2023-09-30T15:17:10;10.75;;;4.45;;
27367;SDS011;14839;48.106;11.618;2023-09-30T15:19:35;11.60;;;4.43;;
27367;SDS011;14839;48.106;11.618;2023-09-30T15:22:01;9.40;;;4.00;;
27367;SDS011;14839;48.106;11.618;2023-09-30T15:24:26;9.23;;;4.00;;
27367;SDS011;14839;48.106;11.618;2023-09-30T15:26:52;13.37;;;4.47;;
27367;SDS011;14839;48.106;11.618;2023-09-30T15:29:18;13.68;;;4.25;;
27367;SDS011;14839;48.106;11.618;2023-09-30T15:31:43;9.93;;;4.43;;
27367;SDS011;14839;48.106;11.618;2023-09-30T15:34:09;8.63;;;4.07;;
27367;SDS011;14839;48.106;11.618;2023-09-30T15:36:36;9.63;;;4.20;;
27367;SDS011;14839;48.106;11.618;2023-09-30T15:39:02;6.60;;;3.43;;
27367;SDS011;14839;48.106;11.618;2023-09-30T15:41:28;9.37;;;3.90;;
27367;SDS011;14839;48.106;11.618;2023-09-30T15:43:53;12.70;;;4.83;;
27367;SDS011;14839;48.106;11.618;2023-09-30T15:46:22;9.27;;;3.47;;
27367;SDS011;14839;48.106;11.618;2023-09-30T15:48:48;12.98;;;4.80;;
27367;SDS011;14839;48.106;11.618;2023-09-30T15:51:14;9.63;;;3.87;;
27367;SDS011;14839;48.106;11.618;2023-09-30T15:53:40;11.53;;;4.27;;
27367;SDS011;14839;48.106;11.618;2023-09-30T15:56:05;9.50;;;3.73;;
27367;SDS011;14839;48.106;11.618;2023-09-30T15:58:31;9.07;;;4.30;;
27367;SDS011;14839;48.106;11.618;2023-09-30T16:01:06;10.27;;;4.60;;
27367;SDS011;14839;48.106;11.618;2023-09-30T16:03:41;14.80;;;4.03;;
27367;SDS011;14839;48.106;11.618;2023-09-30T16:06:09;11.73;;;4.10;;
27367;SDS011;14839;48.106;11.618;2023-09-30T16:08:35;8.90;;;4.00;;
27367;SDS011;14839;48.106;11.618;2023-09-30T16:11:00;8.37;;;4.10;;
27367;SDS011;14839;48.106;11.618;2023-09-30T16:13:26;8.87;;;3.43;;
27367;SDS011;14839;48.106;11.618;2023-09-30T16:15:52;12.37;;;4.23;;
27367;SDS011;14839;48.106;11.618;2023-09-30T16:18:18;9.73;;;4.37;;
27367;SDS011;14839;48.106;11.618;2023-09-30T16:20:44;11.90;;;4.93;;
27367;SDS011;14839;48.106;11.618;2023-09-30T16:23:10;8.70;;;4.43;;
27367;SDS011;14839;48.106;11.618;2023-09-30T16:25:35;12.13;;;5.10;;
27367;SDS011;14839;48.106;11.618;2023-09-30T16:28:01;13.17;;;4.67;;
27367;SDS011;14839;48.106;11.618;2023-09-30T16:30:27;10.17;;;4.43;;
27367;SDS011;14839;48.106;11.618;2023-09-30T16:32:54;11.40;;;4.63;;
27367;SDS011;14839;48.106;11.618;2023-09-30T16:35:19;11.70;;;4.10;;
27367;SDS011;14839;48.106;11.618;2023-09-30T16:37:45;9.13;;;4.20;;
27367;SDS011;14839;48.106;11.618;2023-09-30T16:40:10;12.73;;;4.30;;
27367;SDS011;14839;48.106;11.618;2023-09-30T16:42:36;11.33;;;4.73;;
27367;SDS011;14839;48.106;11.618;2023-09-30T16:45:02;11.23;;;4.17;;
27367;SDS011;14839;48.106;11.618;2023-09-30T16:47:28;12.20;;;4.87;;
27367;SDS011;14839;48.106;11.618;2023-09-30T16:49:53;15.50;;;4.70;;
27367;SDS011;14839;48.106;11.618;2023-09-30T16:52:19;11.47;;;4.70;;
27367;SDS011;14839;48.106;11.618;2023-09-30T16:54:45;9.87;;;4.50;;
27367;SDS011;14839;48.106;11.618;2023-09-30T16:57:10;12.27;;;4.83;;
27367;SDS011;14839;48.106;11.618;2023-09-30T16:59:57;9.70;;;4.63;;
27367;SDS011;14839;48.106;11.618;2023-09-30T17:02:25;9.67;;;4.97;;
27367;SDS011;14839;48.106;11.618;2023-09-30T17:04:50;9.77;;;4.13;;
27367;SDS011;14839;48.106;11.618;2023-09-30T17:07:17;12.00;;;4.70;;
27367;SDS011;14839;48.106;11.618;2023-09-30T17:09:43;13.23;;;4.93;;
27367;SDS011;14839;48.106;11.618;2023-09-30T17:12:12;12.33;;;4.97;;
27367;SDS011;14839;48.106;11.618;2023-09-30T17:14:38;10.30;;;4.57;;
27367;SDS011;14839;48.106;11.618;2023-09-30T17:17:04;11.57;;;5.47;;
27367;SDS011;14839;48.106;11.618;2023-09-30T17:19:30;10.57;;;4.77;;
27367;SDS011;14839;48.106;11.618;2023-09-30T17:21:56;12.40;;;4.90;;
27367;SDS011;14839;48.106;11.618;2023-09-30T17:24:22;12.43;;;4.43;;
27367;SDS011;14839;48.106;11.618;2023-09-30T17:26:48;12.60;;;5.00;;
27367;SDS011;14839;48.106;11.618;2023-09-30T17:29:14;14.97;;;5.30;;
27367;SDS011;14839;48.106;11.618;2023-09-30T17:31:39;11.07;;;5.30;;
27367;SDS011;14839;48.106;11.618;2023-09-30T17:34:05;15.57;;;4.97;;
27367;SDS011;14839;48.106;11.618;2023-09-30T17:36:30;9.77;;;4.97;;
27367;SDS011;14839;48.106;11.618;2023-09-30T17:38:56;9.63;;;4.83;;
27367;SDS011;14839;48.106;11.618;2023-09-30T17:41:22;13.60;;;5.07;;
27367;SDS011;14839;48.106;11.618;2023-09-30T17:43:48;14.23;;;5.10;;
27367;SDS011;14839;48.106;11.618;2023-09-30T17:46:15;14.10;;;5.43;;
27367;SDS011;14839;48.106;11.618;2023-09-30T17:48:45;12.40;;;5.07;;
27367;SDS011;14839;48.106;11.618;2023-09-30T17:51:13;14.50;;;5.83;;
27367;SDS011;14839;48.106;11.618;2023-09-30T17:53:49;10.83;;;5.53;;
27367;SDS011;14839;48.106;11.618;2023-09-30T17:56:15;13.83;;;5.07;;
27367;SDS011;14839;48.106;11.618;2023-09-30T17:58:42;15.77;;;5.97;;
27367;SDS011;14839;48.106;11.618;2023-09-30T18:01:08;12.87;;;5.53;;
27367;SDS011;14839;48.106;11.618;2023-09-30T18:03:34;16.17;;;5.87;;
27367;SDS011;14839;48.106;11.618;2023-09-30T18:06:06;15.43;;;4.97;;
27367;SDS011;14839;48.106;11.618;2023-09-30T18:08:35;13.23;;;5.30;;
27367;SDS011;14839;48.106;11.618;2023-09-30T18:11:02;12.87;;;5.87;;
27367;SDS011;14839;48.106;11.618;2023-09-30T18:13:29;15.03;;;5.57;;
27367;SDS011;14839;48.106;11.618;2023-09-30T18:15:58;14.80;;;5.10;;
27367;SDS011;14839;48.106;11.618;2023-09-30T18:18:25;15.27;;;5.20;;
27367;SDS011;14839;48.106;11.618;2023-09-30T18:20:50;15.07;;;5.50;;
27367;SDS011;14839;48.106;11.618;2023-09-30T18:23:16;16.30;;;6.03;;
27367;SDS011;14839;48.106;11.618;2023-09-30T18:25:42;14.63;;;5.13;;
27367;SDS011;14839;48.106;11.618;2023-09-30T18:28:09;13.57;;;5.93;;
27367;SDS011;14839;48.106;11.618;2023-09-30T18:30:37;13.47;;;4.90;;
27367;SDS011;14839;48.106;11.618;2023-09-30T18:33:05;14.20;;;6.10;;
27367;SDS011;14839;48.106;11.618;2023-09-30T18:35:31;14.03;;;5.07;;
27367;SDS011;14839;48.106;11.618;2023-09-30T18:37:57;14.93;;;5.90;;
27367;SDS011;14839;48.106;11.618;2023-09-30T18:40:23;15.70;;;5.73;;
27367;SDS011;14839;48.106;11.618;2023-09-30T18:42:49;13.17;;;5.33;;
27367;SDS011;14839;48.106;11.618;2023-09-30T18:45:14;12.80;;;5.93;;